createdAt,value
2019-03-03T00:00:46.548Z,2.50
2019-03-03T00:03:18.564Z,2.47
2019-03-03T00:05:50.605Z,2.97
2019-03-03T00:08:24.540Z,2.97
2019-03-03T00:10:56.531Z,2.77
2019-03-03T00:13:28.626Z,2.53
2019-03-03T00:16:00.636Z,2.33
2019-03-03T00:18:32.626Z,2.73
2019-03-03T00:21:04.605Z,2.60
2019-03-03T00:23:36.644Z,2.80
2019-03-03T00:26:08.639Z,2.63
2019-03-03T00:28:40.674Z,2.63
2019-03-03T00:31:15.683Z,2.40
2019-03-03T00:33:47.681Z,2.43
2019-03-03T00:36:20.265Z,2.80
2019-03-03T00:39:05.973Z,2.93
2019-03-03T00:42:06.622Z,2.80
2019-03-03T00:44:53.627Z,3.00
2019-03-03T00:47:34.665Z,2.90
2019-03-03T00:50:17.541Z,4.17
2019-03-03T00:53:00.512Z,3.27
2019-03-03T00:55:43.781Z,2.83
2019-03-03T00:58:38.188Z,2.73
2019-03-03T01:01:24.538Z,2.97
2019-03-03T01:04:31.259Z,2.67
2019-03-03T01:07:25.709Z,2.53
2019-03-03T01:10:20.232Z,2.97
2019-03-03T01:12:59.945Z,2.93
2019-03-03T01:15:57.315Z,2.90
2019-03-03T01:18:39.396Z,2.80
2019-03-03T01:21:30.990Z,2.90
2019-03-03T01:24:34.724Z,2.90
2019-03-03T01:27:06.705Z,2.83
2019-03-03T01:29:38.984Z,2.93
2019-03-03T01:32:10.964Z,2.77
2019-03-03T01:34:42.908Z,2.53
2019-03-03T01:37:14.892Z,2.70
2019-03-03T01:39:46.847Z,2.97
2019-03-03T01:42:18.873Z,2.40
2019-03-03T01:44:50.846Z,2.50
2019-03-03T01:47:22.833Z,2.50
2019-03-03T01:49:54.821Z,2.83
2019-03-03T01:52:26.815Z,2.67
2019-03-03T01:54:58.773Z,2.53
2019-03-03T01:57:30.768Z,2.63
2019-03-03T02:00:03.054Z,2.87
2019-03-03T02:02:35.047Z,2.47
2019-03-03T02:05:07.066Z,2.40
2019-03-03T02:07:39.075Z,2.80
2019-03-03T02:10:11.029Z,2.30
2019-03-03T02:12:43.059Z,2.67
2019-03-03T02:15:15.115Z,2.83
2019-03-03T02:17:47.096Z,2.70
2019-03-03T02:20:19.074Z,2.70
2019-03-03T02:22:51.057Z,3.03
2019-03-03T02:25:23.061Z,2.27
2019-03-03T02:27:55.042Z,2.60
2019-03-03T02:30:27.018Z,2.70
2019-03-03T02:32:58.972Z,2.43
2019-03-03T02:35:31.006Z,2.50
2019-03-03T02:38:03.008Z,2.80
2019-03-03T02:40:34.999Z,2.57
2019-03-03T02:43:07.025Z,2.40
2019-03-03T02:45:39.013Z,2.53
2019-03-03T02:48:10.966Z,2.13
2019-03-03T02:50:42.955Z,2.53
2019-03-03T02:53:14.912Z,2.33
2019-03-03T02:55:46.881Z,2.57
2019-03-03T02:58:18.854Z,2.20
2019-03-03T03:00:56.448Z,2.13
2019-03-03T03:03:28.446Z,2.30
2019-03-03T03:06:22.783Z,2.00
2019-03-03T03:09:12.937Z,2.83
2019-03-03T03:12:11.287Z,2.70
2019-03-03T03:14:59.220Z,2.30
2019-03-03T03:17:46.017Z,2.37
2019-03-03T03:20:36.536Z,1.90
2019-03-03T03:23:26.969Z,2.20
2019-03-03T03:26:13.917Z,3.20
2019-03-03T03:29:05.482Z,3.60
2019-03-03T03:31:49.295Z,2.73
2019-03-03T03:34:28.767Z,2.53
2019-03-03T03:37:12.887Z,2.37
2019-03-03T03:40:04.433Z,2.80
2019-03-03T03:43:05.168Z,2.90
2019-03-03T03:46:11.835Z,2.33
2019-03-03T03:48:55.952Z,2.50
2019-03-03T03:51:47.541Z,3.03
2019-03-03T03:54:37.998Z,2.70
2019-03-03T03:57:29.589Z,2.60
2019-03-03T04:00:24.218Z,2.80
2019-03-03T04:03:21.914Z,2.93
2019-03-03T04:06:28.566Z,2.33
2019-03-03T04:09:11.561Z,2.40
2019-03-03T04:11:57.232Z,2.80
2019-03-03T04:14:44.555Z,2.73
2019-03-03T04:17:39.130Z,2.63
2019-03-03T04:20:39.641Z,2.47
2019-03-03T04:23:40.429Z,2.63
2019-03-03T04:26:34.759Z,2.63
2019-03-03T04:29:25.823Z,3.00
2019-03-03T04:32:03.176Z,2.77
2019-03-03T04:34:49.404Z,2.57
2019-03-03T04:37:43.769Z,2.97
2019-03-03T04:40:35.322Z,2.47
2019-03-03T04:43:19.973Z,2.50
2019-03-03T04:46:01.937Z,2.43
2019-03-03T04:48:46.615Z,3.30
2019-03-03T04:51:34.155Z,2.40
2019-03-03T04:54:15.119Z,3.20
2019-03-03T04:57:03.742Z,2.60
2019-03-03T04:59:55.297Z,2.80
2019-03-03T05:02:54.303Z,3.00
2019-03-03T05:05:42.974Z,3.00
2019-03-03T05:08:20.086Z,2.70
2019-03-03T05:11:02.748Z,2.93
2019-03-03T05:13:50.909Z,2.97
2019-03-03T05:16:36.763Z,2.80
2019-03-03T05:19:13.874Z,2.70
2019-03-03T05:21:45.817Z,2.83
2019-03-03T05:24:17.831Z,2.70
2019-03-03T05:26:49.786Z,2.97
2019-03-03T05:29:21.762Z,2.97
2019-03-03T05:31:53.727Z,3.10
2019-03-03T05:34:25.709Z,2.80
2019-03-03T05:36:57.683Z,2.80
2019-03-03T05:39:29.666Z,2.70
2019-03-03T05:42:01.623Z,2.63
2019-03-03T05:44:33.617Z,3.30
2019-03-03T05:47:05.632Z,2.93
2019-03-03T05:49:37.605Z,2.60
2019-03-03T05:52:09.595Z,3.23
2019-03-03T05:54:41.560Z,3.53
2019-03-03T05:57:13.535Z,2.90
2019-03-03T05:59:45.540Z,3.07
2019-03-03T06:02:17.527Z,2.90
2019-03-03T06:04:49.520Z,3.10
2019-03-03T06:07:21.518Z,2.90
2019-03-03T06:09:53.470Z,2.80
2019-03-03T06:12:25.477Z,2.97
2019-03-03T06:14:57.449Z,2.97
2019-03-03T06:17:29.461Z,3.20
2019-03-03T06:20:01.453Z,2.83
2019-03-03T06:22:33.435Z,2.67
2019-03-03T06:25:05.454Z,3.20
2019-03-03T06:27:37.437Z,3.03
2019-03-03T06:30:10.874Z,2.60
2019-03-03T06:32:42.879Z,3.70
2019-03-03T06:35:14.866Z,3.57
2019-03-03T06:37:46.852Z,4.17
2019-03-03T06:40:18.830Z,3.40
2019-03-03T06:42:50.850Z,3.70
2019-03-03T06:45:22.835Z,3.27
2019-03-03T06:47:54.808Z,3.43
2019-03-03T06:50:26.822Z,3.27
2019-03-03T06:52:58.802Z,3.30
2019-03-03T06:55:30.794Z,3.63
2019-03-03T06:58:02.836Z,3.30
2019-03-03T07:00:34.819Z,3.17
2019-03-03T07:03:06.838Z,2.90
2019-03-03T07:05:38.832Z,3.43
2019-03-03T07:08:10.857Z,3.17
2019-03-03T07:10:42.824Z,3.00
2019-03-03T07:13:14.823Z,2.87
2019-03-03T07:15:46.793Z,3.00
2019-03-03T07:18:18.821Z,2.80
2019-03-03T07:20:50.826Z,3.00
2019-03-03T07:23:22.827Z,3.03
2019-03-03T07:25:54.820Z,2.87
2019-03-03T07:28:26.871Z,3.40
2019-03-03T07:30:58.871Z,3.10
2019-03-03T07:33:32.604Z,3.50
2019-03-03T07:36:04.596Z,2.93
2019-03-03T07:38:36.593Z,3.00
2019-03-03T07:41:08.618Z,3.43
2019-03-03T07:43:40.645Z,3.40
2019-03-03T07:46:12.668Z,3.57
2019-03-03T07:48:44.650Z,3.23
2019-03-03T07:51:16.673Z,3.00
2019-03-03T07:53:48.673Z,3.23
2019-03-03T07:56:20.711Z,3.07
2019-03-03T07:58:52.718Z,3.27
2019-03-03T08:01:24.743Z,3.23
2019-03-03T08:03:56.718Z,3.77
2019-03-03T08:06:28.721Z,2.80
2019-03-03T08:09:00.733Z,3.33
2019-03-03T08:11:32.753Z,3.53
2019-03-03T08:14:04.741Z,2.93
2019-03-03T08:16:36.742Z,3.37
2019-03-03T08:19:08.748Z,3.57
2019-03-03T08:21:40.807Z,2.83
2019-03-03T08:24:12.796Z,3.33
2019-03-03T08:26:44.796Z,2.80
2019-03-03T08:29:16.769Z,3.20
2019-03-03T08:31:48.804Z,3.27
2019-03-03T08:34:20.819Z,2.90
2019-03-03T08:36:52.802Z,3.03
2019-03-03T08:39:24.801Z,3.10
2019-03-03T08:42:15.052Z,3.30
2019-03-03T08:45:24.971Z,3.00
2019-03-03T08:48:19.467Z,3.33
2019-03-03T08:51:02.062Z,3.40
2019-03-03T08:54:05.632Z,2.77
2019-03-03T08:56:55.845Z,3.23
2019-03-03T08:59:39.697Z,2.50
2019-03-03T09:02:24.288Z,2.73
2019-03-03T09:05:18.640Z,3.33
2019-03-03T09:08:10.290Z,3.00
2019-03-03T09:11:13.954Z,3.17
2019-03-03T09:14:11.810Z,3.50
2019-03-03T09:16:52.578Z,3.53
2019-03-03T09:19:59.545Z,3.30
2019-03-03T09:22:50.104Z,3.00
2019-03-03T09:25:40.533Z,2.60
2019-03-03T09:28:25.151Z,3.07
2019-03-03T09:31:06.140Z,2.97
2019-03-03T09:34:00.433Z,3.70
2019-03-03T09:36:52.053Z,3.07
2019-03-03T09:39:43.659Z,2.87
2019-03-03T09:42:22.771Z,3.17
2019-03-03T09:45:12.279Z,3.30
2019-03-03T09:48:02.577Z,2.83
2019-03-03T09:50:43.680Z,3.37
2019-03-03T09:53:38.052Z,2.97
2019-03-03T09:56:28.272Z,3.57
2019-03-03T09:59:13.934Z,3.00
2019-03-03T10:02:17.782Z,3.00
2019-03-03T10:05:07.943Z,2.90
2019-03-03T10:07:47.900Z,2.77
2019-03-03T10:10:54.634Z,3.10
2019-03-03T10:13:44.804Z,3.20
2019-03-03T10:16:45.446Z,2.90
2019-03-03T10:19:42.849Z,3.27
2019-03-03T10:22:21.928Z,3.13
2019-03-03T10:25:19.545Z,3.70
2019-03-03T10:27:57.096Z,3.43
2019-03-03T10:30:37.370Z,3.17
2019-03-03T10:33:37.120Z,2.77
2019-03-03T10:36:28.733Z,3.33
2019-03-03T10:39:19.372Z,3.07
2019-03-03T10:42:11.010Z,3.37
2019-03-03T10:45:18.107Z,2.83
2019-03-03T10:48:09.707Z,3.33
2019-03-03T10:51:04.226Z,3.27
2019-03-03T10:54:01.885Z,3.13
2019-03-03T10:56:48.491Z,3.00
2019-03-03T10:59:54.777Z,3.20
2019-03-03T11:02:30.912Z,3.00
2019-03-03T11:05:19.026Z,3.10
2019-03-03T11:08:10.177Z,2.73
2019-03-03T11:11:16.918Z,2.43
2019-03-03T11:14:03.117Z,2.93
2019-03-03T11:16:46.856Z,3.00
2019-03-03T11:19:44.415Z,2.23
2019-03-03T11:22:27.974Z,2.47
2019-03-03T11:25:09.833Z,2.90
2019-03-03T11:27:56.817Z,2.67
2019-03-03T11:31:03.762Z,2.67
2019-03-03T11:34:09.738Z,2.50
2019-03-03T11:37:01.384Z,2.63
2019-03-03T11:39:51.247Z,2.87
2019-03-03T11:42:28.400Z,2.63
2019-03-03T11:45:18.834Z,2.70
2019-03-03T11:48:09.182Z,2.47
2019-03-03T11:51:06.584Z,2.60
2019-03-03T11:53:46.905Z,2.40
2019-03-03T11:56:41.567Z,2.50
2019-03-03T11:59:19.489Z,2.30
2019-03-03T12:02:09.930Z,2.70
2019-03-03T12:04:54.867Z,2.63
2019-03-03T12:07:45.073Z,2.53
2019-03-03T12:10:35.600Z,2.40
2019-03-03T12:13:26.081Z,2.37
2019-03-03T12:16:05.611Z,2.07
2019-03-03T12:19:09.510Z,2.00
2019-03-03T12:22:13.064Z,2.60
2019-03-03T12:25:06.101Z,2.00
2019-03-03T12:28:12.777Z,2.33
2019-03-03T12:31:22.628Z,2.27
2019-03-03T12:34:07.099Z,2.30
2019-03-03T12:36:45.563Z,2.27
2019-03-03T12:39:21.925Z,2.27
2019-03-03T12:42:03.647Z,2.60
2019-03-03T12:44:45.078Z,2.60
2019-03-03T12:47:24.114Z,2.47
2019-03-03T12:50:08.688Z,2.27
2019-03-03T12:53:15.654Z,2.50
2019-03-03T12:56:04.600Z,2.97
2019-03-03T12:58:45.067Z,2.50
2019-03-03T13:01:35.553Z,2.83
2019-03-03T13:04:30.265Z,2.50
2019-03-03T13:07:20.767Z,2.90
2019-03-03T13:10:12.336Z,2.73
2019-03-03T13:12:53.254Z,2.60
2019-03-03T13:15:47.861Z,2.73
2019-03-03T13:18:45.730Z,2.80
2019-03-03T13:21:33.195Z,2.93
2019-03-03T13:24:27.759Z,3.00
2019-03-03T13:27:18.148Z,2.63
2019-03-03T13:30:16.067Z,3.10
2019-03-03T13:33:10.825Z,2.50
2019-03-03T13:36:02.905Z,3.00
2019-03-03T13:39:01.845Z,3.13
2019-03-03T13:41:44.742Z,2.63
2019-03-03T13:44:16.950Z,2.80
2019-03-03T13:46:49.185Z,2.77
2019-03-03T13:49:23.086Z,2.50
2019-03-03T13:51:55.150Z,2.93
2019-03-03T13:54:27.218Z,2.60
2019-03-03T13:56:59.271Z,2.83
2019-03-03T13:59:31.355Z,3.00
2019-03-03T14:02:06.523Z,2.33
2019-03-03T14:04:38.605Z,2.80
2019-03-03T14:07:10.679Z,2.60
2019-03-03T14:09:42.759Z,2.50
2019-03-03T14:12:14.767Z,2.70
2019-03-03T14:14:46.892Z,2.70
2019-03-03T14:17:20.725Z,2.60
2019-03-03T14:19:52.881Z,2.83
2019-03-03T14:22:24.891Z,3.07
2019-03-03T14:24:57.006Z,2.40
2019-03-03T14:27:30.103Z,2.83
2019-03-03T14:30:02.193Z,3.20
2019-03-03T14:32:34.230Z,2.70
2019-03-03T14:35:07.764Z,3.07
2019-03-03T14:37:39.768Z,3.10
2019-03-03T14:40:12.857Z,2.53
2019-03-03T14:42:44.879Z,2.87
2019-03-03T14:45:17.102Z,2.27
2019-03-03T14:47:49.124Z,2.30
2019-03-03T14:50:21.280Z,2.43
2019-03-03T14:52:53.315Z,2.50
2019-03-03T14:55:25.421Z,2.70
2019-03-03T14:57:57.464Z,2.53
2019-03-03T15:00:30.682Z,3.03
2019-03-03T15:03:04.979Z,2.77
2019-03-03T15:05:37.186Z,2.97
2019-03-03T15:08:09.314Z,2.60
2019-03-03T15:10:43.280Z,2.47
2019-03-03T15:13:16.139Z,2.33
2019-03-03T15:15:50.090Z,2.70
2019-03-03T15:18:22.183Z,2.43
2019-03-03T15:20:54.410Z,2.70
2019-03-03T15:23:26.589Z,3.13
2019-03-03T15:25:58.593Z,2.60
2019-03-03T15:28:30.779Z,2.93
2019-03-03T15:31:03.894Z,3.20
2019-03-03T15:33:35.985Z,2.73
2019-03-03T15:36:08.215Z,2.43
2019-03-03T15:38:40.260Z,2.87
2019-03-03T15:41:12.417Z,2.60
2019-03-03T15:43:44.561Z,2.30
2019-03-03T15:46:16.683Z,2.70
2019-03-03T15:48:48.764Z,2.50
2019-03-03T15:51:20.781Z,3.43
2019-03-03T15:53:52.832Z,3.37
2019-03-03T15:56:24.864Z,2.90
2019-03-03T15:58:56.914Z,2.47
2019-03-03T16:01:30.544Z,3.00
2019-03-03T16:04:02.736Z,2.77
2019-03-03T16:06:34.756Z,3.10
2019-03-03T16:09:09.809Z,2.62
2019-03-03T16:11:42.028Z,2.80
2019-03-03T16:14:14.245Z,3.43
2019-03-03T16:16:46.379Z,3.03
2019-03-03T16:19:18.423Z,2.67
2019-03-03T16:21:50.564Z,2.57
2019-03-03T16:24:22.657Z,2.60
2019-03-03T16:26:54.818Z,2.53
2019-03-03T16:29:26.886Z,2.83
2019-03-03T16:31:58.916Z,2.70
2019-03-03T16:34:30.957Z,2.40
2019-03-03T16:37:03.191Z,5.23
2019-03-03T16:39:35.203Z,8.97
2019-03-03T16:42:09.074Z,4.80
2019-03-03T16:44:41.126Z,3.60
2019-03-03T16:47:15.007Z,3.00
2019-03-03T16:49:47.039Z,2.90
2019-03-03T16:52:19.080Z,3.20
2019-03-03T16:54:51.126Z,3.10
2019-03-03T16:57:23.178Z,2.90
2019-03-03T16:59:55.275Z,3.03
2019-03-03T17:02:27.325Z,2.90
2019-03-03T17:04:59.372Z,2.63
2019-03-03T17:07:31.441Z,3.33
2019-03-03T17:10:03.889Z,5.63
2019-03-03T17:12:35.954Z,7.47
2019-03-03T17:15:50.055Z,4.63
2019-03-03T17:18:22.088Z,2.93
2019-03-03T17:20:54.111Z,3.20
2019-03-03T17:23:26.178Z,2.83
2019-03-03T17:25:58.353Z,3.00
2019-03-03T17:28:30.469Z,2.70
2019-03-03T17:31:02.478Z,3.13
2019-03-03T17:33:34.576Z,2.53
2019-03-03T17:36:06.681Z,3.00
2019-03-03T17:38:38.701Z,3.00
2019-03-03T17:41:10.754Z,2.80
2019-03-03T17:43:42.864Z,2.63
2019-03-03T17:46:14.943Z,2.90
2019-03-03T17:48:47.015Z,2.60
2019-03-03T17:51:19.054Z,3.07
2019-03-03T17:53:51.104Z,3.37
2019-03-03T17:56:23.114Z,4.10
2019-03-03T17:58:55.209Z,5.70
2019-03-03T18:01:27.279Z,8.00
2019-03-03T18:03:59.351Z,6.53
2019-03-03T18:06:38.520Z,5.53
2019-03-03T18:09:26.958Z,4.80
2019-03-03T18:11:58.947Z,5.40
2019-03-03T18:14:31.058Z,4.83
2019-03-03T18:17:03.091Z,5.50
2019-03-03T18:19:35.181Z,8.10
2019-03-03T18:22:07.232Z,5.73
2019-03-03T18:24:39.285Z,10.40
2019-03-03T18:27:11.362Z,10.93
2019-03-03T18:29:43.476Z,8.67
2019-03-03T18:32:15.480Z,5.73
2019-03-03T18:34:47.526Z,5.30
2019-03-03T18:37:19.574Z,7.00
2019-03-03T18:39:52.194Z,5.40
2019-03-03T18:42:24.209Z,4.37
2019-03-03T18:44:56.317Z,4.47
2019-03-03T18:47:28.358Z,4.83
2019-03-03T18:50:00.472Z,4.20
2019-03-03T18:52:32.506Z,3.00
2019-03-03T18:55:05.550Z,3.97
2019-03-03T18:57:37.660Z,4.93
2019-03-03T19:00:11.980Z,4.40
2019-03-03T19:03:24.877Z,60.00
2019-03-03T19:05:56.955Z,31.23
2019-03-03T19:08:30.425Z,22.03
2019-03-03T19:11:03.159Z,9.20
2019-03-03T19:13:35.690Z,8.03
2019-03-03T19:16:09.211Z,6.20
2019-03-03T19:18:41.328Z,5.20
2019-03-03T19:21:13.435Z,5.30
2019-03-03T19:23:45.476Z,4.60
2019-03-03T19:26:19.040Z,6.37
2019-03-03T19:28:51.700Z,5.77
2019-03-03T19:31:23.793Z,7.10
2019-03-03T19:33:56.554Z,7.27
2019-03-03T19:36:28.595Z,8.80
2019-03-03T19:39:00.736Z,9.27
2019-03-03T19:41:32.835Z,7.87
2019-03-03T19:44:04.902Z,7.27
2019-03-03T19:46:37.013Z,6.50
2019-03-03T19:49:09.086Z,6.47
2019-03-03T19:51:41.248Z,5.33
2019-03-03T19:54:13.331Z,6.13
2019-03-03T19:56:45.445Z,7.13
2019-03-03T19:59:19.292Z,5.83
2019-03-03T20:01:51.476Z,5.70
2019-03-03T20:04:43.072Z,6.40
2019-03-03T20:07:34.561Z,6.13
2019-03-03T20:10:07.699Z,5.93
2019-03-03T20:12:39.775Z,5.47
2019-03-03T20:15:11.890Z,5.43
2019-03-03T20:17:44.021Z,7.77
2019-03-03T20:20:16.187Z,7.40
2019-03-03T20:22:48.289Z,8.27
2019-03-03T20:25:20.370Z,9.63
2019-03-03T20:27:52.414Z,9.77
2019-03-03T20:30:24.812Z,10.73
2019-03-03T20:32:56.968Z,9.87
2019-03-03T20:35:29.103Z,8.80
2019-03-03T20:38:03.761Z,8.17
2019-03-03T20:40:35.861Z,6.83
2019-03-03T20:43:07.972Z,7.20
2019-03-03T20:45:40.183Z,7.70
2019-03-03T20:48:12.339Z,13.00
2019-03-03T20:50:44.514Z,16.57
2019-03-03T20:53:16.574Z,18.07
2019-03-03T20:55:48.630Z,14.40
2019-03-03T20:58:20.680Z,10.70
2019-03-03T21:00:55.157Z,8.80
2019-03-03T21:03:27.260Z,8.73
2019-03-03T21:05:59.420Z,8.07
2019-03-03T21:08:33.294Z,8.97
2019-03-03T21:11:05.454Z,9.53
2019-03-03T21:13:37.490Z,7.97
2019-03-03T21:16:09.575Z,6.73
2019-03-03T21:18:41.649Z,7.33
2019-03-03T21:21:13.708Z,6.60
2019-03-03T21:23:45.804Z,7.40
2019-03-03T21:26:17.862Z,6.70
2019-03-03T21:28:49.854Z,6.90
2019-03-03T21:31:21.930Z,7.57
2019-03-03T21:33:53.927Z,7.50
2019-03-03T21:36:26.006Z,6.93
2019-03-03T21:38:58.041Z,6.97
2019-03-03T21:41:30.494Z,6.70
2019-03-03T21:44:02.518Z,41.90
2019-03-03T21:46:35.152Z,17.87
2019-03-03T21:49:07.227Z,13.23
2019-03-03T21:51:39.245Z,10.33
2019-03-03T21:54:11.333Z,8.00
2019-03-03T21:56:43.374Z,9.50
2019-03-03T21:59:15.648Z,6.93
2019-03-03T22:01:47.702Z,7.60
2019-03-03T22:04:19.795Z,6.70
2019-03-03T22:06:51.805Z,5.60
2019-03-03T22:09:23.849Z,4.97
2019-03-03T22:11:55.828Z,6.73
2019-03-03T22:14:27.916Z,6.93
2019-03-03T22:16:59.908Z,5.90
2019-03-03T22:19:31.942Z,5.07
2019-03-03T22:22:04.100Z,6.70
2019-03-03T22:24:36.168Z,5.70
2019-03-03T22:27:08.179Z,6.20
2019-03-03T22:29:40.324Z,5.90
2019-03-03T22:32:12.310Z,5.90
2019-03-03T22:34:44.317Z,7.00
2019-03-03T22:37:16.399Z,6.53
2019-03-03T22:39:48.465Z,6.20
2019-03-03T22:42:20.442Z,5.70
2019-03-03T22:44:52.448Z,5.53
2019-03-03T22:47:24.472Z,8.10
2019-03-03T22:49:56.462Z,4.47
2019-03-03T22:52:28.425Z,3.87
2019-03-03T22:55:00.443Z,4.17
2019-03-03T22:57:32.445Z,4.53
2019-03-03T23:00:13.111Z,4.00
2019-03-03T23:02:45.121Z,3.40
2019-03-03T23:05:25.289Z,4.00
2019-03-03T23:08:16.110Z,4.60
2019-03-03T23:11:26.580Z,6.17
2019-03-03T23:14:52.817Z,3.93
2019-03-03T23:18:06.162Z,3.80
2019-03-03T23:21:13.293Z,3.80
2019-03-03T23:24:30.961Z,4.10
2019-03-03T23:27:03.061Z,4.00
2019-03-03T23:29:35.062Z,4.17
2019-03-03T23:32:07.064Z,3.70
2019-03-03T23:34:39.055Z,3.77
2019-03-03T23:37:11.087Z,4.43
2019-03-03T23:39:43.099Z,4.90
2019-03-03T23:42:15.187Z,4.27
2019-03-03T23:44:47.184Z,3.40
2019-03-03T23:47:19.225Z,3.53
2019-03-03T23:49:51.205Z,3.57
2019-03-03T23:52:23.203Z,3.50
2019-03-03T23:54:55.195Z,3.50
2019-03-03T23:57:27.221Z,3.83
2019-03-03T23:59:59.177Z,3.80
